West New York, NJ (07093)

8:20 AM EDT en Julio 03, 2015 (GMT -0400)
American Museum of Natural History roof | | Change Station
CLOSE
Current Station
Estación meteorológica personal
Location: New York, NY
Altura: 89 ft
Estaciones meteorológicas cercanas

Alt 89 ft 40.78 °N, 73.97 °W | Updated 1 minute ago

Clear
Despejado
68.7 ° F
Sensación térmica 68.7 ° F
N
2.0
Viento Variable Viento desde ONO
Gusts 6.0 mph

Hoy
Alta -- | Baja -- ° F
--% Posibilidad de precipitaciones
Ayer
Alta -- | Baja -- ° F
Precip. -- pul
5:29 AM 8:31 PM
Luna llena, 97% visible
Presión 29.98 pul
Visibilidad 10.0 Millas
Nubes Despejado
Punto de rocío 54 ° F
Humedad 60%
Precipitaciones 0.00 pul
Espesor de la nieve No disponible.
UV 2 de una escala de 12
Polen 4.10 de una escala de 12
Calidad del aire No disponible.
Flu Activity No disponible.
METAR KNYC 031151Z AUTO VRB06KT 10SM CLR 20/11 A3000 RMK AO2 SLP150 T02000106 10217 20189 51020 $

More Conditions Fewer Conditions

Presión 29.98 pul
Visibilidad 10.0 Millas
Nubes Despejado
Punto de rocío 54 ° F
Humedad 60%
Precipitaciones 0.00 pul
Espesor de la nieve No disponible.
UV 2 de una escala de 12
Polen 4.10 de una escala de 12
Calidad del aire No disponible.
Flu Activity No disponible.
METAR KNYC 031151Z AUTO VRB06KT 10SM CLR 20/11 A3000 RMK AO2 SLP150 T02000106 10217 20189 51020 $

More Conditions Fewer Conditions

10-Day Weather Forecast

×

Almanac

Astronomía

Jul. 03, 2015 Salida Puesta
Hora real
Crepúsculo civil
Crepúsculo náutico
Crepúsculo astronómico
Luna
Horas de luz
Horas de luz
Tomorrow will be .
, % of the Moon is Illuminated

Extremos de hoy

Máximos del estado Bajos del estado

Community

WunderPhotos

Upload Photos

1,834,656 ¡fotos cargadas!

WunderBlogs® & News

Nearby

Calidad del aire

  Calidad del aire Índice AQ Contaminante
Not available.

Grosos de nieve

Estación Profundido Altura

Actividad de terremotos

Ciudad Distance Mag. Tiempo y dato
Magnitud mínima muestra es 2,5.

Temperaturas de aguas costeras

Lugar Temperatura

Stations

Estaciones meteorológicas cercanas

Ubicación de la estación Temp. Vientos helados Punto de rocío Humedad Viento Precip. Alt Actualizado Tipo